EVW weather

Evanston-Uinta County Airport-Burns Field
Evanston, Wyoming, United States

Public forecast

Using degrees Fahrenheit for public forecast. Weather courtesy of forecast.io.

Current aviation weather report (METAR) for Evanston-Uinta County Airport-Burns Field

Retrieved 2020/02/20 00:53 UTC (53 minutes ago):

KEVW 200053Z AUTO 05003KT 10SM CLR M11/M17 A3029 RMK AO2 SLP352 T11111167

Aviation forecast (TAF) for Evanston-Uinta County Airport-Burns Field

Retrieved 2020-02-20 00:33 UTC (1 hour ago):

TAF KEVW 192331Z 2000/2024 06005KT P6SM SKC FM201000 09003KT 6SM BR BCFG FEW001 FM201700 08005KT P6SM SKC